createdAt,value
2016-03-17T00:00:53.075Z,0
2016-03-17T00:01:53.093Z,0
2016-03-17T00:02:53.095Z,0
2016-03-17T00:03:53.098Z,0
2016-03-17T00:04:53.101Z,0
2016-03-17T00:05:53.103Z,0
2016-03-17T00:06:53.122Z,0
2016-03-17T00:07:53.124Z,0
2016-03-17T00:08:53.142Z,0
2016-03-17T00:09:53.145Z,0
2016-03-17T00:10:53.147Z,0
2016-03-17T00:11:53.135Z,0
2016-03-17T00:12:53.169Z,0
2016-03-17T00:13:53.172Z,0
2016-03-17T00:14:53.002Z,0
2016-03-17T00:16:35.539Z,0
2016-03-17T00:16:53.180Z,0
2016-03-17T00:17:53.026Z,0
2016-03-17T00:18:53.217Z,0
2016-03-17T00:19:53.204Z,0
2016-03-17T00:20:53.222Z,0
2016-03-17T00:21:53.210Z,0
2016-03-17T00:22:53.227Z,0
2016-03-17T00:23:53.230Z,0
2016-03-17T00:24:53.218Z,0
2016-03-17T00:25:53.235Z,0
2016-03-17T00:26:53.237Z,0
2016-03-17T00:27:53.256Z,0
2016-03-17T00:28:53.275Z,0
2016-03-17T00:29:53.262Z,0
2016-03-17T00:30:53.265Z,0
2016-03-17T00:31:53.283Z,0
2016-03-17T00:32:53.301Z,0
2016-03-17T00:33:53.303Z,0
2016-03-17T00:34:53.306Z,0
2016-03-17T00:35:53.309Z,0
2016-03-17T00:36:53.312Z,0
2016-03-17T00:37:53.315Z,0
2016-03-17T00:38:53.333Z,0
2016-03-17T00:39:53.351Z,0
2016-03-17T00:40:53.353Z,0
2016-03-17T00:41:53.356Z,0
2016-03-17T00:42:53.358Z,0
2016-03-17T00:43:53.361Z,0
2016-03-17T00:44:53.358Z,0
2016-03-17T00:45:53.375Z,0
2016-03-17T00:46:53.378Z,0
2016-03-17T00:47:53.397Z,0
2016-03-17T00:48:53.384Z,0
2016-03-17T00:49:53.387Z,0
2016-03-17T00:50:53.405Z,0
2016-03-17T00:51:53.423Z,0
2016-03-17T00:52:53.426Z,0
2016-03-17T00:53:53.413Z,0
2016-03-17T00:54:53.416Z,0
2016-03-17T00:55:53.434Z,0
2016-03-17T00:56:53.437Z,0
2016-03-17T00:57:53.455Z,0
2016-03-17T00:58:53.458Z,0
2016-03-17T00:59:53.477Z,0
2016-03-17T01:00:53.463Z,0
2016-03-17T01:01:53.497Z,0
2016-03-17T01:02:53.485Z,0
2016-03-17T01:03:53.487Z,0
2016-03-17T01:04:53.490Z,0
2016-03-17T01:05:53.508Z,0
2016-03-17T01:06:53.662Z,0
2016-03-17T01:07:53.524Z,0
2016-03-17T01:08:53.558Z,0
2016-03-17T01:09:53.373Z,0
2016-03-17T01:10:53.532Z,0
2016-03-17T01:11:53.535Z,0
2016-03-17T01:12:53.538Z,0
2016-03-17T01:13:53.556Z,0
2016-03-17T01:14:53.574Z,0
2016-03-17T01:15:53.561Z,0
2016-03-17T01:16:53.580Z,0
2016-03-17T01:17:53.582Z,0
2016-03-17T01:18:53.632Z,0
2016-03-17T01:19:53.588Z,0
2016-03-17T01:20:53.622Z,0
2016-03-17T01:21:53.609Z,0
2016-03-17T01:22:53.627Z,0
2016-03-17T01:23:53.614Z,0
2016-03-17T01:24:53.648Z,0
2016-03-17T01:25:53.620Z,0
2016-03-17T01:26:53.653Z,0
2016-03-17T01:27:53.656Z,0
2016-03-17T01:28:53.659Z,0
2016-03-17T01:29:53.661Z,0
2016-03-17T01:30:53.664Z,0
2016-03-17T01:31:53.666Z,0
2016-03-17T01:32:53.669Z,0
2016-03-17T01:33:53.672Z,0
2016-03-17T01:34:53.690Z,0
2016-03-17T01:35:53.693Z,0
2016-03-17T01:36:53.696Z,0
2016-03-17T01:37:53.714Z,0
2016-03-17T01:38:53.733Z,0
2016-03-17T01:39:53.720Z,0
2016-03-17T01:40:53.722Z,0
2016-03-17T01:41:53.569Z,0
2016-03-17T01:42:53.744Z,0
2016-03-17T01:43:53.590Z,0
2016-03-17T01:44:53.765Z,0
2016-03-17T01:45:53.783Z,0
2016-03-17T01:46:53.770Z,0
2016-03-17T01:47:53.773Z,0
2016-03-17T01:48:53.775Z,0
2016-03-17T01:49:53.793Z,0
2016-03-17T01:50:53.796Z,0
2016-03-17T01:51:53.799Z,0
2016-03-17T01:52:53.802Z,0
2016-03-17T01:53:53.820Z,0
2016-03-17T01:54:53.823Z,0
2016-03-17T01:55:53.810Z,0
2016-03-17T01:56:53.828Z,0
2016-03-17T01:57:53.831Z,0
2016-03-17T01:58:53.833Z,0
2016-03-17T01:59:53.853Z,0
2016-03-17T02:00:53.855Z,0
2016-03-17T02:01:53.858Z,0
2016-03-17T02:02:53.860Z,0
2016-03-17T02:03:53.863Z,0
2016-03-17T02:04:53.880Z,0
2016-03-17T02:05:53.883Z,0
2016-03-17T02:06:53.886Z,0
2016-03-17T02:07:53.919Z,0
2016-03-17T02:08:53.907Z,0
2016-03-17T02:09:53.894Z,0
2016-03-17T02:10:53.913Z,0
2016-03-17T02:11:53.930Z,0
2016-03-17T02:12:53.934Z,0
2016-03-17T02:13:53.936Z,0
2016-03-17T02:14:53.955Z,0
2016-03-17T02:16:08.067Z,0
2016-03-17T02:16:53.944Z,0
2016-03-17T02:17:53.682Z,0
2016-03-17T02:18:53.996Z,0
2016-03-17T02:19:53.968Z,0
2016-03-17T02:20:53.971Z,0
2016-03-17T02:21:53.989Z,0
2016-03-17T02:22:54.024Z,0
2016-03-17T02:23:53.995Z,0
2016-03-17T02:24:53.998Z,0
2016-03-17T02:25:54.001Z,0
2016-03-17T02:26:54.003Z,0
2016-03-17T02:27:54.021Z,0
2016-03-17T02:28:54.023Z,0
2016-03-17T02:29:54.042Z,0
2016-03-17T02:30:54.061Z,0
2016-03-17T02:31:54.032Z,0
2016-03-17T02:32:54.050Z,0
2016-03-17T02:33:54.053Z,0
2016-03-17T02:34:54.055Z,0
2016-03-17T02:35:54.058Z,0
2016-03-17T02:36:54.077Z,0
2016-03-17T02:37:54.095Z,0
2016-03-17T02:38:54.083Z,0
2016-03-17T02:39:54.100Z,0
2016-03-17T02:40:54.103Z,0
2016-03-17T02:41:54.105Z,0
2016-03-17T02:42:54.108Z,0
2016-03-17T02:43:54.111Z,0
2016-03-17T02:44:53.973Z,0
2016-03-17T02:46:08.241Z,0
2016-03-17T02:46:54.135Z,0
2016-03-17T02:47:54.138Z,0
2016-03-17T02:48:54.155Z,0
2016-03-17T02:49:54.158Z,0
2016-03-17T02:50:54.161Z,0
2016-03-17T02:51:54.163Z,0
2016-03-17T02:52:54.167Z,0
2016-03-17T02:53:54.185Z,0
2016-03-17T02:54:54.188Z,0
2016-03-17T02:55:54.206Z,0
2016-03-17T02:56:54.193Z,0
2016-03-17T02:57:54.195Z,0
2016-03-17T02:58:54.199Z,0
2016-03-17T02:59:54.201Z,0
2016-03-17T03:00:54.219Z,0
2016-03-17T03:01:54.253Z,0
2016-03-17T03:02:54.240Z,0
2016-03-17T03:03:54.228Z,0
2016-03-17T03:04:54.246Z,0
2016-03-17T03:05:54.264Z,0
2016-03-17T03:06:54.251Z,0
2016-03-17T03:07:54.270Z,0
2016-03-17T03:08:54.289Z,0
2016-03-17T03:09:54.274Z,0
2016-03-17T03:10:54.277Z,0
2016-03-17T03:11:54.296Z,0
2016-03-17T03:12:54.314Z,0
2016-03-17T03:13:54.301Z,0
2016-03-17T03:14:54.304Z,0
2016-03-17T03:15:54.306Z,0
2016-03-17T03:16:54.309Z,0
2016-03-17T03:17:54.312Z,0
2016-03-17T03:18:54.330Z,0
2016-03-17T03:19:54.348Z,0
2016-03-17T03:20:54.335Z,0
2016-03-17T03:21:54.338Z,0
2016-03-17T03:22:54.341Z,0
2016-03-17T03:23:54.360Z,0
2016-03-17T03:24:54.363Z,0
2016-03-17T03:25:54.396Z,0
2016-03-17T03:26:54.383Z,0
2016-03-17T03:27:54.370Z,0
2016-03-17T03:28:54.388Z,0
2016-03-17T03:29:54.391Z,0
2016-03-17T03:30:54.409Z,0
2016-03-17T03:31:54.412Z,0
2016-03-17T03:32:54.508Z,0
2016-03-17T03:33:54.417Z,0
2016-03-17T03:34:54.420Z,0
2016-03-17T03:35:54.454Z,0
2016-03-17T03:36:54.442Z,0
2016-03-17T03:37:54.447Z,0
2016-03-17T03:38:54.422Z,0
2016-03-17T03:39:54.413Z,0
2016-03-17T03:40:54.418Z,0
2016-03-17T03:41:54.424Z,0
2016-03-17T03:42:54.423Z,0
2016-03-17T03:43:54.405Z,0
2016-03-17T03:44:54.248Z,0
2016-03-17T03:45:54.402Z,0
2016-03-17T03:46:54.416Z,0
2016-03-17T03:47:54.668Z,0
2016-03-17T03:48:54.450Z,0
2016-03-17T03:49:54.436Z,0
2016-03-17T03:50:54.421Z,0
2016-03-17T03:51:54.423Z,0
2016-03-17T03:52:54.441Z,0
2016-03-17T03:53:54.443Z,0
2016-03-17T03:54:54.459Z,0
2016-03-17T03:55:54.462Z,0
2016-03-17T03:56:54.463Z,0
2016-03-17T03:57:54.466Z,0
2016-03-17T03:58:54.469Z,0
2016-03-17T03:59:54.488Z,0
2016-03-17T04:00:54.490Z,0
2016-03-17T04:01:54.508Z,0
2016-03-17T04:02:54.870Z,0
2016-03-17T04:03:54.513Z,0
2016-03-17T04:04:54.515Z,0
2016-03-17T04:05:54.518Z,0
2016-03-17T04:06:54.521Z,0
2016-03-17T04:07:54.523Z,0
2016-03-17T04:08:54.542Z,0
2016-03-17T04:09:54.545Z,0
2016-03-17T04:10:54.564Z,0
2016-03-17T04:11:54.567Z,0
2016-03-17T04:12:54.553Z,0
2016-03-17T04:13:54.572Z,0
2016-03-17T04:14:54.575Z,0
2016-03-17T04:15:54.577Z,0
2016-03-17T04:16:54.595Z,0
2016-03-17T04:17:54.692Z,0
2016-03-17T04:18:54.600Z,0
2016-03-17T04:19:54.619Z,0
2016-03-17T04:20:54.621Z,0
2016-03-17T04:21:54.608Z,0
2016-03-17T04:22:54.627Z,0
2016-03-17T04:23:54.630Z,0
2016-03-17T04:24:54.649Z,0
2016-03-17T04:25:54.651Z,0
2016-03-17T04:26:54.638Z,0
2016-03-17T04:27:54.641Z,0
2016-03-17T04:28:54.644Z,0
2016-03-17T04:29:54.662Z,0
2016-03-17T04:30:54.665Z,0
2016-03-17T04:31:54.682Z,0
2016-03-17T04:32:54.826Z,0
2016-03-17T04:33:54.687Z,0
2016-03-17T04:34:54.690Z,0
2016-03-17T04:35:54.709Z,0
2016-03-17T04:36:54.711Z,0
2016-03-17T04:37:54.698Z,0
2016-03-17T04:38:54.717Z,0
2016-03-17T04:39:54.720Z,0
2016-03-17T04:40:54.723Z,0
2016-03-17T04:41:54.741Z,0
2016-03-17T04:42:54.743Z,0
2016-03-17T04:43:54.746Z,0
2016-03-17T04:44:54.748Z,0
2016-03-17T04:45:54.767Z,0
2016-03-17T04:46:54.754Z,0
2016-03-17T04:47:54.711Z,0
2016-03-17T04:48:54.775Z,0
2016-03-17T04:49:54.778Z,0
2016-03-17T04:50:54.780Z,0
2016-03-17T04:51:54.783Z,0
2016-03-17T04:52:54.801Z,0
2016-03-17T04:53:54.804Z,0
2016-03-17T04:54:54.807Z,0
2016-03-17T04:55:54.810Z,0
2016-03-17T04:56:54.843Z,0
2016-03-17T04:57:54.831Z,0
2016-03-17T04:58:54.833Z,0
2016-03-17T04:59:54.852Z,0
2016-03-17T05:00:54.854Z,0
2016-03-17T05:01:54.857Z,0
2016-03-17T05:02:55.016Z,0
2016-03-17T05:03:54.862Z,0
2016-03-17T05:04:54.865Z,0
2016-03-17T05:05:54.868Z,0
2016-03-17T05:06:54.886Z,0
2016-03-17T05:07:54.889Z,0
2016-03-17T05:08:54.891Z,0
2016-03-17T05:09:54.909Z,0
2016-03-17T05:10:54.912Z,0
2016-03-17T05:11:54.915Z,0
2016-03-17T05:12:54.934Z,4
2016-03-17T05:13:54.937Z,0
2016-03-17T05:14:54.923Z,0
2016-03-17T05:15:54.925Z,0
2016-03-17T05:16:54.945Z,4
2016-03-17T05:17:54.947Z,0
2016-03-17T05:18:54.965Z,4
2016-03-17T05:19:54.967Z,4
2016-03-17T05:20:54.955Z,4
2016-03-17T05:21:54.958Z,4
2016-03-17T05:22:54.992Z,4
2016-03-17T05:23:54.995Z,4
2016-03-17T05:24:55.013Z,8
2016-03-17T05:25:55.016Z,8
2016-03-17T05:26:55.002Z,8
2016-03-17T05:27:55.005Z,8
2016-03-17T05:28:55.008Z,8
2016-03-17T05:29:55.026Z,8
2016-03-17T05:30:55.029Z,12
2016-03-17T05:31:55.046Z,12
2016-03-17T05:32:55.050Z,16
2016-03-17T05:33:55.035Z,20
2016-03-17T05:34:55.037Z,20
2016-03-17T05:35:55.040Z,24
2016-03-17T05:36:55.060Z,28
2016-03-17T05:37:55.063Z,28
2016-03-17T05:38:55.082Z,32
2016-03-17T05:39:55.084Z,32
2016-03-17T05:40:55.087Z,36
2016-03-17T05:41:55.090Z,40
2016-03-17T05:42:55.093Z,44
2016-03-17T05:43:55.095Z,48
2016-03-17T05:44:55.114Z,52
2016-03-17T05:45:55.100Z,60
2016-03-17T05:46:55.119Z,64
2016-03-17T05:47:55.122Z,68
2016-03-17T05:48:55.124Z,72
2016-03-17T05:49:55.127Z,80
2016-03-17T05:50:55.144Z,84
2016-03-17T05:51:55.147Z,88
2016-03-17T05:52:55.166Z,100
2016-03-17T05:53:55.169Z,104
2016-03-17T05:54:55.156Z,112
2016-03-17T05:55:55.174Z,120
2016-03-17T05:56:55.177Z,128
2016-03-17T05:57:55.179Z,136
2016-03-17T05:58:55.182Z,144
2016-03-17T05:59:55.200Z,152
2016-03-17T06:00:55.203Z,160
2016-03-17T06:01:55.206Z,172
2016-03-17T06:02:55.208Z,184
2016-03-17T06:03:55.227Z,192
2016-03-17T06:04:55.230Z,204
2016-03-17T06:05:55.233Z,216
2016-03-17T06:06:55.251Z,224
2016-03-17T06:07:55.238Z,236
2016-03-17T06:08:55.256Z,248
2016-03-17T06:09:55.259Z,260
2016-03-17T06:10:55.262Z,272
2016-03-17T06:11:55.264Z,284
2016-03-17T06:12:55.282Z,296
2016-03-17T06:13:55.284Z,308
2016-03-17T06:14:55.288Z,320
2016-03-17T06:15:55.290Z,336
2016-03-17T06:16:55.293Z,344
2016-03-17T06:17:55.312Z,356
2016-03-17T06:18:55.314Z,372
2016-03-17T06:19:55.317Z,384
2016-03-17T06:20:55.320Z,400
2016-03-17T06:21:55.322Z,420
2016-03-17T06:22:55.341Z,468
2016-03-17T06:23:55.343Z,568
2016-03-17T06:24:55.346Z,692
2016-03-17T06:25:55.363Z,792
2016-03-17T06:26:55.351Z,840
2016-03-17T06:27:55.369Z,868
2016-03-17T06:28:55.371Z,900
2016-03-17T06:29:55.391Z,932
2016-03-17T06:30:55.393Z,944
2016-03-17T06:31:55.396Z,964
2016-03-17T06:32:55.399Z,984
2016-03-17T06:33:55.402Z,1004
2016-03-17T06:34:55.419Z,1020
2016-03-17T06:35:55.422Z,924
2016-03-17T06:36:56.127Z,780
2016-03-17T06:37:55.608Z,692
2016-03-17T06:38:55.002Z,636
2016-03-17T06:39:55.961Z,624
2016-03-17T06:40:55.484Z,632
2016-03-17T06:41:55.486Z,644
2016-03-17T06:42:55.458Z,656
2016-03-17T06:43:55.492Z,668
2016-03-17T06:44:55.525Z,680
2016-03-17T06:45:55.528Z,692
2016-03-17T06:46:55.500Z,700
2016-03-17T06:47:55.533Z,708
2016-03-17T06:48:55.505Z,712
2016-03-17T06:49:55.527Z,724
2016-03-17T06:50:55.530Z,736
2016-03-17T06:51:55.547Z,748
2016-03-17T06:52:55.550Z,764
2016-03-17T06:53:55.538Z,772
2016-03-17T06:54:55.555Z,780
2016-03-17T06:55:55.574Z,788
2016-03-17T06:56:55.576Z,800
2016-03-17T06:57:55.579Z,808
2016-03-17T06:58:55.613Z,812
2016-03-17T06:59:55.584Z,824
2016-03-17T07:00:55.604Z,828
2016-03-17T07:01:55.606Z,836
2016-03-17T07:02:55.623Z,840
2016-03-17T07:03:55.611Z,852
2016-03-17T07:04:55.645Z,860
2016-03-17T07:05:55.617Z,872
2016-03-17T07:06:55.634Z,876
2016-03-17T07:07:55.637Z,892
2016-03-17T07:08:55.672Z,904
2016-03-17T07:09:55.643Z,912
2016-03-17T07:10:55.662Z,920
2016-03-17T07:11:55.664Z,924
2016-03-17T07:12:55.667Z,928
2016-03-17T07:13:55.670Z,936
2016-03-17T07:14:55.688Z,944
2016-03-17T07:15:55.847Z,952
2016-03-17T07:16:55.708Z,960
2016-03-17T07:17:55.696Z,960
2016-03-17T07:18:55.699Z,968
2016-03-17T07:19:55.733Z,972
2016-03-17T07:20:55.719Z,980
2016-03-17T07:21:55.753Z,984
2016-03-17T07:22:55.740Z,988
2016-03-17T07:23:55.743Z,992
2016-03-17T07:24:55.761Z,1000
2016-03-17T07:25:55.764Z,1004
2016-03-17T07:26:55.752Z,1016
2016-03-17T07:27:55.770Z,1020
2016-03-17T07:28:55.788Z,1028
2016-03-17T07:29:55.775Z,1032
2016-03-17T07:30:55.793Z,1036
2016-03-17T07:31:55.796Z,1044
2016-03-17T07:32:55.799Z,1048
2016-03-17T07:33:55.802Z,1056
2016-03-17T07:34:55.820Z,1060
2016-03-17T07:35:55.806Z,1064
2016-03-17T07:36:55.825Z,1068
2016-03-17T07:37:55.828Z,1072
2016-03-17T07:38:55.831Z,1072
2016-03-17T07:39:55.834Z,1080
2016-03-17T07:40:55.851Z,1080
2016-03-17T07:41:55.853Z,1084
2016-03-17T07:42:55.856Z,1088
2016-03-17T07:43:55.875Z,1092
2016-03-17T07:44:55.878Z,1096
2016-03-17T07:45:55.881Z,1100
2016-03-17T07:46:55.899Z,1104
2016-03-17T07:47:55.933Z,1116
2016-03-17T07:48:55.905Z,1120
2016-03-17T07:49:55.922Z,1124
2016-03-17T07:50:55.910Z,1124
2016-03-17T07:51:55.913Z,1136
2016-03-17T07:52:55.774Z,1136
2016-03-17T07:53:55.933Z,1144
2016-03-17T07:54:55.935Z,1148
2016-03-17T07:55:55.955Z,1156
2016-03-17T07:56:55.972Z,1160
2016-03-17T07:57:55.960Z,1160
2016-03-17T07:58:55.963Z,1168
2016-03-17T07:59:55.980Z,1172
2016-03-17T08:00:55.983Z,1180
2016-03-17T08:01:56.017Z,1184
2016-03-17T08:02:56.020Z,1188
2016-03-17T08:03:56.007Z,1200
2016-03-17T08:04:56.010Z,1204
2016-03-17T08:05:56.028Z,1208
2016-03-17T08:06:56.036Z,1212
2016-03-17T08:07:56.039Z,1228
2016-03-17T08:08:56.041Z,1236
2016-03-17T08:09:56.044Z,1260
2016-03-17T08:10:56.047Z,1264
2016-03-17T08:11:56.065Z,1280
2016-03-17T08:12:56.084Z,1308
2016-03-17T08:13:56.070Z,1320
2016-03-17T08:14:55.933Z,1344
2016-03-17T08:15:56.092Z,1364
2016-03-17T08:16:56.094Z,1452
2016-03-17T08:17:56.097Z,1568
2016-03-17T08:18:56.114Z,1948
2016-03-17T08:19:56.134Z,3980
2016-03-17T08:20:56.120Z,6036
2016-03-17T08:21:56.139Z,6852
2016-03-17T08:22:56.141Z,7380
2016-03-17T08:23:56.160Z,7372
2016-03-17T08:24:56.177Z,7072
2016-03-17T08:25:56.180Z,6420
2016-03-17T08:26:56.027Z,6624
2016-03-17T08:27:56.202Z,6500
2016-03-17T08:28:56.205Z,5952
2016-03-17T08:29:56.223Z,5904
2016-03-17T08:30:56.257Z,5884
2016-03-17T08:31:56.243Z,5856
2016-03-17T08:32:56.262Z,7924
2016-03-17T08:33:56.296Z,13312
2016-03-17T08:34:56.299Z,17696
2016-03-17T08:35:56.302Z,18528
2016-03-17T08:36:56.336Z,19264
2016-03-17T08:37:56.323Z,19840
2016-03-17T08:38:56.326Z,19744
2016-03-17T08:39:56.344Z,19840
2016-03-17T08:40:56.346Z,19968
2016-03-17T08:41:56.381Z,20064
2016-03-17T08:42:56.398Z,20000
2016-03-17T08:43:56.385Z,20576
2016-03-17T08:44:56.389Z,20768
2016-03-17T08:45:56.406Z,20864
2016-03-17T08:46:56.425Z,20800
2016-03-17T08:47:56.442Z,20928
2016-03-17T08:48:56.383Z,21088
2016-03-17T08:49:56.480Z,20768
2016-03-17T08:50:56.483Z,21152
2016-03-17T08:51:56.500Z,21248
2016-03-17T08:52:56.519Z,21792
2016-03-17T08:53:56.538Z,21440
2016-03-17T08:54:56.556Z,21600
2016-03-17T08:55:56.543Z,22368
2016-03-17T08:56:56.561Z,21760
2016-03-17T08:57:56.594Z,22144
2016-03-17T08:58:56.597Z,22240
2016-03-17T08:59:56.616Z,22592
2016-03-17T09:00:56.635Z,23296
2016-03-17T09:01:56.637Z,22976
2016-03-17T09:02:56.655Z,23424
2016-03-17T09:03:56.579Z,23488
2016-03-17T09:04:56.693Z,24160
2016-03-17T09:05:56.710Z,24096
2016-03-17T09:06:56.718Z,24640
2016-03-17T09:07:56.751Z,24864
2016-03-17T09:08:56.787Z,25088
2016-03-17T09:09:56.773Z,25120
2016-03-17T09:10:56.792Z,24672
2016-03-17T09:11:56.809Z,23968
2016-03-17T09:12:56.828Z,15836
2016-03-17T09:13:56.831Z,5700
2016-03-17T09:14:56.849Z,2884
2016-03-17T09:15:56.867Z,2808
2016-03-17T09:16:56.901Z,2744
2016-03-17T09:17:56.888Z,2684
2016-03-17T09:18:56.984Z,2644
2016-03-17T09:20:01.408Z,2564
2016-03-17T09:20:56.958Z,2532
2016-03-17T09:21:56.961Z,2456
2016-03-17T09:22:57.698Z,2400
2016-03-17T09:23:56.967Z,2312
2016-03-17T09:24:56.969Z,2268
2016-03-17T09:25:58.394Z,2244
2016-03-17T09:26:56.994Z,2228
2016-03-17T09:27:57.012Z,2240
2016-03-17T09:28:57.015Z,2236
2016-03-17T09:29:57.034Z,2216
2016-03-17T09:30:57.036Z,2204
2016-03-17T09:31:57.055Z,2176
2016-03-17T09:32:57.058Z,2136
2016-03-17T09:33:57.092Z,2100
2016-03-17T09:34:57.094Z,2084
2016-03-17T09:35:57.066Z,2056
2016-03-17T09:36:57.100Z,2036
2016-03-17T09:37:57.117Z,1980
2016-03-17T09:38:57.105Z,1960
2016-03-17T09:39:57.108Z,1972
2016-03-17T09:40:57.142Z,1932
2016-03-17T09:41:57.144Z,1964
2016-03-17T09:42:57.131Z,1940
2016-03-17T09:43:57.180Z,1928
2016-03-17T09:44:57.152Z,1912
2016-03-17T09:45:57.186Z,1924
2016-03-17T09:46:57.173Z,1924
2016-03-17T09:47:57.191Z,1916
2016-03-17T09:48:57.194Z,1904
2016-03-17T09:49:57.197Z,1924
2016-03-17T09:50:57.215Z,1916
2016-03-17T09:51:57.218Z,1908
2016-03-17T09:52:57.237Z,1892
2016-03-17T09:53:57.255Z,1912
2016-03-17T09:54:57.258Z,1844
2016-03-17T09:55:57.259Z,1904
2016-03-17T09:56:57.309Z,1900
2016-03-17T09:57:57.297Z,1916
2016-03-17T09:58:57.268Z,1884
2016-03-17T09:59:57.287Z,1864
2016-03-17T10:00:57.289Z,1864
2016-03-17T10:01:57.307Z,1864
2016-03-17T10:02:57.185Z,1884
2016-03-17T10:03:57.328Z,1860
2016-03-17T10:04:57.331Z,1836
2016-03-17T10:05:57.334Z,1824
2016-03-17T10:06:57.336Z,1836
2016-03-17T10:07:57.355Z,1832
2016-03-17T10:08:57.358Z,1824
2016-03-17T10:09:57.376Z,1824
2016-03-17T10:10:57.378Z,1800
2016-03-17T10:11:57.380Z,1820
2016-03-17T10:12:57.400Z,1804
2016-03-17T10:13:57.403Z,1776
2016-03-17T10:14:57.404Z,1804
2016-03-17T10:17:06.597Z,1772
2016-03-17T10:18:06.554Z,1780
2016-03-17T10:19:06.602Z,1764
2016-03-17T10:20:06.590Z,1748
2016-03-17T10:21:06.593Z,1740
2016-03-17T10:22:06.611Z,1736
2016-03-17T10:23:06.598Z,1748
2016-03-17T10:24:06.616Z,1744
2016-03-17T10:25:06.618Z,1740
2016-03-17T10:26:06.621Z,1736
2016-03-17T10:27:06.640Z,1720
2016-03-17T10:28:06.643Z,1712
2016-03-17T10:29:06.662Z,1708
2016-03-17T10:30:06.664Z,1692
2016-03-17T10:31:06.682Z,1692
2016-03-17T10:32:06.669Z,1684
2016-03-17T10:33:06.673Z,1680
2016-03-17T10:34:06.753Z,1680
2016-03-17T10:35:06.692Z,1700
2016-03-17T10:36:06.695Z,1652
2016-03-17T10:37:06.714Z,1640
2016-03-17T10:38:06.733Z,1640
2016-03-17T10:39:06.720Z,1632
2016-03-17T10:40:06.738Z,1612
2016-03-17T10:41:06.756Z,1616
2016-03-17T10:42:06.743Z,1624
2016-03-17T10:43:06.605Z,1612
2016-03-17T10:44:06.764Z,1612
2016-03-17T10:45:06.767Z,1600
2016-03-17T10:46:06.832Z,1580
2016-03-17T10:47:06.788Z,1576
2016-03-17T10:48:06.806Z,1564
2016-03-17T10:49:06.809Z,1572
2016-03-17T10:50:06.811Z,1564
2016-03-17T10:51:06.830Z,1552
2016-03-17T10:52:06.832Z,1544
2016-03-17T10:53:06.694Z,1532
2016-03-17T10:54:06.854Z,1532
2016-03-17T10:55:06.857Z,1528
2016-03-17T10:56:06.859Z,1508
2016-03-17T10:57:06.877Z,1512
2016-03-17T10:58:06.864Z,1504
2016-03-17T10:59:06.883Z,1492
2016-03-17T11:00:06.901Z,1484
2016-03-17T11:01:06.888Z,1468
2016-03-17T11:02:06.906Z,1460
2016-03-17T11:03:06.893Z,1464
2016-03-17T11:04:06.928Z,1444
2016-03-17T11:05:06.930Z,1436
2016-03-17T11:06:06.964Z,1424
2016-03-17T11:07:06.951Z,1432
2016-03-17T11:08:06.954Z,1416
2016-03-17T11:09:06.975Z,1408
2016-03-17T11:10:06.961Z,1412
2016-03-17T11:11:06.996Z,1404
2016-03-17T11:12:06.983Z,1396
2016-03-17T11:13:07.001Z,1388
2016-03-17T11:14:07.004Z,1376
2016-03-17T11:15:07.006Z,1376
2016-03-17T11:16:07.026Z,1368
2016-03-17T11:17:07.028Z,1352
2016-03-17T11:18:07.046Z,1352
2016-03-17T11:19:07.049Z,1340
2016-03-17T11:20:07.067Z,1332
2016-03-17T11:21:07.069Z,1324
2016-03-17T11:22:07.073Z,1316
2016-03-17T11:23:07.074Z,1300
2016-03-17T11:24:07.078Z,1292
2016-03-17T11:25:07.096Z,1284
2016-03-17T11:26:07.099Z,1280
2016-03-17T11:27:07.101Z,1268
2016-03-17T11:28:07.136Z,1276
2016-03-17T11:29:07.122Z,1248
2016-03-17T11:30:07.141Z,1248
2016-03-17T11:31:07.128Z,1236
2016-03-17T11:32:07.146Z,1228
2016-03-17T11:33:07.164Z,1232
2016-03-17T11:34:07.167Z,1228
2016-03-17T11:35:07.170Z,1224
2016-03-17T11:36:07.188Z,1220
2016-03-17T11:37:07.207Z,1212
2016-03-17T11:38:07.193Z,1204
2016-03-17T11:39:07.196Z,1196
2016-03-17T11:40:07.199Z,1188
2016-03-17T11:41:07.218Z,1172
2016-03-17T11:42:07.220Z,1164
2016-03-17T11:43:07.239Z,1156
2016-03-17T11:44:06.506Z,1152
2016-03-17T11:45:07.275Z,1140
2016-03-17T11:46:35.500Z,1136
2016-03-17T11:47:07.250Z,1132
2016-03-17T11:48:07.298Z,1136
2016-03-17T11:49:07.286Z,1132
2016-03-17T11:50:07.289Z,1128
2016-03-17T11:51:07.291Z,1120
2016-03-17T11:52:07.309Z,1116
2016-03-17T11:53:07.312Z,1108
2016-03-17T11:54:07.346Z,1120
2016-03-17T11:55:07.317Z,1120
2016-03-17T11:56:06.585Z,1112
2016-03-17T11:57:07.369Z,1096
2016-03-17T11:58:07.357Z,1112
2016-03-17T11:59:07.360Z,1104
2016-03-17T12:00:07.363Z,1092
2016-03-17T12:01:07.416Z,1092
2016-03-17T12:02:07.373Z,1084
2016-03-17T12:03:07.390Z,1080
2016-03-17T12:04:07.424Z,1084
2016-03-17T12:05:07.427Z,1076
2016-03-17T12:06:07.414Z,1076
2016-03-17T12:07:07.417Z,1060
2016-03-17T12:08:07.435Z,1056
2016-03-17T12:09:07.454Z,1052
2016-03-17T12:10:07.285Z,1032
2016-03-17T12:11:07.443Z,1020
2016-03-17T12:12:07.477Z,1016
2016-03-17T12:13:07.464Z,1008
2016-03-17T12:14:07.468Z,996
2016-03-17T12:15:07.486Z,980
2016-03-17T12:16:07.488Z,976
2016-03-17T12:17:07.491Z,972
2016-03-17T12:18:07.494Z,968
2016-03-17T12:19:07.511Z,976
2016-03-17T12:20:07.514Z,948
2016-03-17T12:21:07.517Z,948
2016-03-17T12:22:07.536Z,948
2016-03-17T12:23:07.554Z,940
2016-03-17T12:24:07.541Z,952
2016-03-17T12:25:07.560Z,920
2016-03-17T12:26:07.562Z,932
2016-03-17T12:27:07.580Z,916
2016-03-17T12:28:07.568Z,908
2016-03-17T12:29:07.601Z,912
2016-03-17T12:30:07.604Z,900
2016-03-17T12:31:07.591Z,884
2016-03-17T12:32:07.610Z,880
2016-03-17T12:33:07.612Z,876
2016-03-17T12:34:07.630Z,864
2016-03-17T12:35:07.632Z,856
2016-03-17T12:36:07.651Z,860
2016-03-17T12:37:07.654Z,852
2016-03-17T12:38:07.657Z,844
2016-03-17T12:39:07.675Z,840
2016-03-17T12:40:07.693Z,828
2016-03-17T12:41:07.712Z,820
2016-03-17T12:42:07.698Z,804
2016-03-17T12:43:07.702Z,792
2016-03-17T12:44:07.697Z,784
2016-03-17T12:45:07.704Z,768
2016-03-17T12:46:07.678Z,796
2016-03-17T12:47:07.700Z,756
2016-03-17T12:48:07.690Z,752
2016-03-17T12:49:07.670Z,740
2016-03-17T12:50:07.684Z,736
2016-03-17T12:51:07.698Z,736
2016-03-17T12:52:07.681Z,728
2016-03-17T12:53:07.694Z,728
2016-03-17T12:54:07.694Z,724
2016-03-17T12:55:07.711Z,716
2016-03-17T12:56:07.727Z,716
2016-03-17T12:57:07.714Z,716
2016-03-17T12:58:07.761Z,712
2016-03-17T12:59:07.717Z,712
2016-03-17T13:00:07.750Z,712
2016-03-17T13:01:07.751Z,720
2016-03-17T13:02:07.753Z,720
2016-03-17T13:03:07.771Z,720
2016-03-17T13:04:07.757Z,720
2016-03-17T13:05:07.776Z,724
2016-03-17T13:06:07.794Z,728
2016-03-17T13:07:07.789Z,744
2016-03-17T13:08:07.806Z,752
2016-03-17T13:09:07.653Z,784
2016-03-17T13:10:07.811Z,804
2016-03-17T13:11:07.830Z,916
2016-03-17T13:12:07.833Z,1132
2016-03-17T13:13:07.851Z,1176
2016-03-17T13:14:07.854Z,1028
2016-03-17T13:15:07.841Z,948
2016-03-17T13:16:07.859Z,1232
2016-03-17T13:17:07.877Z,2412
2016-03-17T13:18:07.880Z,5216
2016-03-17T13:19:07.882Z,6852
2016-03-17T13:20:07.885Z,11104
2016-03-17T13:21:07.920Z,10200
2016-03-17T13:22:07.922Z,3164
2016-03-17T13:23:07.909Z,2108
2016-03-17T13:24:07.928Z,3580
2016-03-17T13:25:07.930Z,8216
2016-03-17T13:26:07.949Z,7456
2016-03-17T13:27:07.797Z,10596
2016-03-17T13:28:07.955Z,5300
2016-03-17T13:29:07.974Z,2512
2016-03-17T13:30:07.976Z,2228
2016-03-17T13:31:07.994Z,2260
2016-03-17T13:32:07.982Z,1488
2016-03-17T13:33:07.999Z,3312
2016-03-17T13:34:08.018Z,6984
2016-03-17T13:35:08.021Z,5860
2016-03-17T13:36:08.023Z,8124
2016-03-17T13:37:08.010Z,6116
2016-03-17T13:38:08.044Z,1284
2016-03-17T13:39:07.907Z,784
2016-03-17T13:40:08.066Z,716
2016-03-17T13:41:08.068Z,680
2016-03-17T13:42:08.071Z,676
2016-03-17T13:43:08.089Z,676
2016-03-17T13:44:08.092Z,664
2016-03-17T13:45:08.109Z,656
2016-03-17T13:46:08.129Z,640
2016-03-17T13:47:08.115Z,640
2016-03-17T13:48:08.118Z,636
2016-03-17T13:49:08.152Z,624
2016-03-17T13:50:08.139Z,616
2016-03-17T13:51:08.157Z,616
2016-03-17T13:52:08.191Z,612
2016-03-17T13:53:08.163Z,608
2016-03-17T13:54:08.181Z,600
2016-03-17T13:55:08.184Z,604
2016-03-17T13:56:08.186Z,596
2016-03-17T13:57:08.205Z,596
2016-03-17T13:58:08.208Z,592
2016-03-17T13:59:08.225Z,592